createdAt,value
2019-01-27T00:00:28.763Z,12.09
2019-01-27T00:01:28.694Z,12.10
2019-01-27T00:02:28.631Z,12.01
2019-01-27T00:03:28.559Z,12.13
2019-01-27T00:04:28.484Z,12.10
2019-01-27T00:05:28.417Z,12.21
2019-01-27T00:06:28.329Z,12.23
2019-01-27T00:07:28.269Z,12.24
2019-01-27T00:08:28.196Z,12.16
2019-01-27T00:09:28.117Z,12.20
2019-01-27T00:10:28.057Z,12.31
2019-01-27T00:11:27.987Z,12.31
2019-01-27T00:12:27.899Z,12.37
2019-01-27T00:13:27.830Z,12.41
2019-01-27T00:14:27.808Z,12.35
2019-01-27T00:15:27.700Z,12.38
2019-01-27T00:16:27.622Z,12.38
2019-01-27T00:17:27.565Z,12.41
2019-01-27T00:18:27.469Z,12.38
2019-01-27T00:19:27.407Z,12.41
2019-01-27T00:20:27.332Z,12.37
2019-01-27T00:21:27.257Z,12.32
2019-01-27T00:22:27.196Z,12.31
2019-01-27T00:23:27.124Z,12.34
2019-01-27T00:24:27.056Z,12.38
2019-01-27T00:25:26.982Z,12.31
2019-01-27T00:26:26.899Z,12.35
2019-01-27T00:27:26.821Z,12.31
2019-01-27T00:28:26.762Z,12.29
2019-01-27T00:29:26.690Z,12.34
2019-01-27T00:30:26.612Z,12.35
2019-01-27T00:31:26.537Z,12.29
2019-01-27T00:32:26.467Z,12.32
2019-01-27T00:33:26.426Z,12.28
2019-01-27T00:34:26.335Z,12.24
2019-01-27T00:35:26.262Z,12.31
2019-01-27T00:36:26.179Z,12.31
2019-01-27T00:37:26.107Z,12.28
2019-01-27T00:38:26.054Z,12.35
2019-01-27T00:39:25.998Z,12.27
2019-01-27T00:40:25.906Z,12.29
2019-01-27T00:41:25.835Z,12.37
2019-01-27T00:42:25.748Z,12.28
2019-01-27T00:43:25.673Z,12.31
2019-01-27T00:44:25.626Z,12.35
2019-01-27T00:45:25.588Z,12.35
2019-01-27T00:46:25.463Z,12.37
2019-01-27T00:47:25.402Z,12.39
2019-01-27T00:48:25.315Z,12.31
2019-01-27T00:49:25.243Z,12.20
2019-01-27T00:50:25.187Z,12.28
2019-01-27T00:51:25.118Z,12.34
2019-01-27T00:52:25.046Z,12.17
2019-01-27T00:53:24.974Z,12.09
2019-01-27T00:54:24.888Z,11.95
2019-01-27T00:55:24.859Z,11.65
2019-01-27T00:56:24.745Z,11.52
2019-01-27T00:57:24.674Z,11.42
2019-01-27T00:58:24.613Z,11.32
2019-01-27T00:59:24.542Z,11.29
2019-01-27T01:00:24.461Z,11.21
2019-01-27T01:01:24.388Z,11.15
2019-01-27T01:02:24.339Z,11.18
2019-01-27T01:03:24.258Z,11.10
2019-01-27T01:04:24.192Z,11.15
2019-01-27T01:05:24.124Z,11.19
2019-01-27T01:06:24.029Z,11.09
2019-01-27T01:07:23.951Z,11.11
2019-01-27T01:08:23.904Z,11.18
2019-01-27T01:09:23.820Z,11.15
2019-01-27T01:10:23.737Z,11.14
2019-01-27T01:11:23.667Z,11.10
2019-01-27T01:12:23.595Z,11.10
2019-01-27T01:13:23.524Z,10.91
2019-01-27T01:14:23.459Z,10.88
2019-01-27T01:15:23.390Z,10.84
2019-01-27T01:16:23.305Z,10.86
2019-01-27T01:17:23.233Z,10.86
2019-01-27T01:18:23.171Z,10.88
2019-01-27T01:19:23.103Z,10.86
2019-01-27T01:20:23.032Z,10.85
2019-01-27T01:21:22.973Z,10.96
2019-01-27T01:22:22.868Z,10.85
2019-01-27T01:23:22.803Z,10.81
2019-01-27T01:24:22.724Z,10.81
2019-01-27T01:25:22.652Z,10.85
2019-01-27T01:26:22.592Z,10.85
2019-01-27T01:27:22.517Z,10.89
2019-01-27T01:28:22.453Z,10.89
2019-01-27T01:29:22.373Z,10.86
2019-01-27T01:30:22.304Z,10.88
2019-01-27T01:31:22.216Z,10.86
2019-01-27T01:32:22.155Z,10.82
2019-01-27T01:33:22.077Z,10.86
2019-01-27T01:34:21.996Z,10.78
2019-01-27T01:35:21.926Z,10.66
2019-01-27T01:36:21.853Z,10.74
2019-01-27T01:37:21.779Z,10.76
2019-01-27T01:38:21.716Z,10.71
2019-01-27T01:39:21.644Z,10.70
2019-01-27T01:40:21.562Z,10.68
2019-01-27T01:41:21.491Z,10.73
2019-01-27T01:42:21.435Z,10.74
2019-01-27T01:43:21.348Z,10.70
2019-01-27T01:44:21.281Z,10.64
2019-01-27T01:45:21.205Z,10.60
2019-01-27T01:46:21.127Z,10.59
2019-01-27T01:47:21.049Z,10.56
2019-01-27T01:48:20.989Z,10.71
2019-01-27T01:49:20.914Z,10.67
2019-01-27T01:50:20.834Z,10.67
2019-01-27T01:51:20.755Z,10.70
2019-01-27T01:52:20.706Z,10.73
2019-01-27T01:53:20.609Z,10.71
2019-01-27T01:54:20.549Z,10.71
2019-01-27T01:55:20.473Z,10.60
2019-01-27T01:56:20.403Z,10.60
2019-01-27T01:57:20.332Z,10.40
2019-01-27T01:58:20.245Z,10.33
2019-01-27T01:59:20.169Z,10.44
2019-01-27T02:00:20.122Z,10.45
2019-01-27T02:01:20.026Z,10.40
2019-01-27T02:02:19.962Z,10.38
2019-01-27T02:03:19.889Z,10.48
2019-01-27T02:04:19.811Z,10.51
2019-01-27T02:05:19.728Z,10.48
2019-01-27T02:06:19.674Z,10.40
2019-01-27T02:07:19.600Z,10.47
2019-01-27T02:08:19.536Z,10.41
2019-01-27T02:09:19.451Z,10.41
2019-01-27T02:10:19.372Z,10.41
2019-01-27T02:11:19.293Z,10.38
2019-01-27T02:12:19.223Z,10.38
2019-01-27T02:13:19.172Z,10.45
2019-01-27T02:14:19.085Z,10.47
2019-01-27T02:15:19.015Z,10.51
2019-01-27T02:16:18.941Z,10.44
2019-01-27T02:17:18.902Z,10.55
2019-01-27T02:18:18.781Z,10.55
2019-01-27T02:19:18.710Z,10.70
2019-01-27T02:20:18.651Z,10.71
2019-01-27T02:21:18.576Z,10.82
2019-01-27T02:22:18.489Z,10.85
2019-01-27T02:23:18.413Z,10.79
2019-01-27T02:24:18.342Z,10.86
2019-01-27T02:25:18.272Z,10.84
2019-01-27T02:26:18.209Z,10.89
2019-01-27T02:27:18.134Z,10.86
2019-01-27T02:28:18.064Z,10.89
2019-01-27T02:29:18.038Z,10.88
2019-01-27T02:30:17.916Z,10.96
2019-01-27T02:31:17.833Z,10.85
2019-01-27T02:32:17.754Z,10.85
2019-01-27T02:33:17.683Z,10.89
2019-01-27T02:34:17.628Z,10.76
2019-01-27T02:35:17.592Z,10.76
2019-01-27T02:36:17.466Z,10.79
2019-01-27T02:37:17.393Z,10.82
2019-01-27T02:38:17.332Z,10.82
2019-01-27T02:39:17.261Z,10.89
2019-01-27T02:40:17.185Z,10.71
2019-01-27T02:41:17.124Z,10.67
2019-01-27T02:42:17.027Z,10.64
2019-01-27T02:43:16.949Z,10.73
2019-01-27T02:44:16.894Z,10.81
2019-01-27T02:45:16.837Z,10.84
2019-01-27T02:46:16.737Z,10.86
2019-01-27T02:47:16.672Z,10.81
2019-01-27T02:48:16.589Z,10.78
2019-01-27T02:49:16.527Z,10.79
2019-01-27T02:50:16.455Z,10.79
2019-01-27T02:51:16.371Z,10.71
2019-01-27T02:52:16.297Z,10.81
2019-01-27T02:53:16.241Z,10.73
2019-01-27T02:54:16.165Z,10.74
2019-01-27T02:55:16.091Z,10.67
2019-01-27T02:56:16.019Z,10.67
2019-01-27T02:57:15.938Z,10.63
2019-01-27T02:58:15.859Z,10.59
2019-01-27T02:59:15.781Z,10.64
2019-01-27T03:00:15.739Z,10.60
2019-01-27T03:01:15.646Z,10.53
2019-01-27T03:02:15.590Z,10.60
2019-01-27T03:03:15.500Z,10.60
2019-01-27T03:04:15.439Z,10.61
2019-01-27T03:05:15.345Z,10.66
2019-01-27T03:06:15.274Z,10.66
2019-01-27T03:07:15.213Z,10.60
2019-01-27T03:08:15.141Z,10.60
2019-01-27T03:09:15.052Z,10.60
2019-01-27T03:10:14.981Z,10.63
2019-01-27T03:11:14.907Z,10.61
2019-01-27T03:12:14.837Z,10.70
2019-01-27T03:13:14.772Z,10.61
2019-01-27T03:14:14.702Z,10.55
2019-01-27T03:15:14.629Z,10.55
2019-01-27T03:16:14.555Z,10.53
2019-01-27T03:17:14.469Z,10.51
2019-01-27T03:18:14.395Z,10.47
2019-01-27T03:19:14.319Z,10.51
2019-01-27T03:20:14.258Z,10.48
2019-01-27T03:21:14.187Z,10.53
2019-01-27T03:22:14.115Z,10.48
2019-01-27T03:23:14.030Z,10.53
2019-01-27T03:24:13.957Z,10.51
2019-01-27T03:25:13.930Z,10.48
2019-01-27T03:26:13.826Z,10.47
2019-01-27T03:27:13.748Z,10.52
2019-01-27T03:28:13.672Z,10.56
2019-01-27T03:29:13.592Z,10.63
2019-01-27T03:30:13.526Z,10.61
2019-01-27T03:31:13.462Z,10.60
2019-01-27T03:32:13.375Z,10.51
2019-01-27T03:33:13.313Z,10.48
2019-01-27T03:34:13.263Z,10.52
2019-01-27T03:35:13.160Z,10.51
2019-01-27T03:36:13.108Z,10.59
2019-01-27T03:37:13.002Z,10.53
2019-01-27T03:38:12.932Z,10.61
2019-01-27T03:39:12.869Z,10.63
2019-01-27T03:40:12.801Z,10.61
2019-01-27T03:41:12.755Z,10.55
2019-01-27T03:42:12.642Z,10.52
2019-01-27T03:43:12.570Z,10.56
2019-01-27T03:44:12.499Z,10.52
2019-01-27T03:45:12.443Z,10.53
2019-01-27T03:46:12.355Z,10.56
2019-01-27T03:47:12.277Z,10.53
2019-01-27T03:48:12.213Z,10.55
2019-01-27T03:49:12.145Z,10.61
2019-01-27T03:50:12.068Z,10.52
2019-01-27T03:51:11.994Z,10.55
2019-01-27T03:52:11.942Z,10.56
2019-01-27T03:53:11.836Z,10.47
2019-01-27T03:54:11.763Z,10.41
2019-01-27T03:55:11.701Z,10.34
2019-01-27T03:56:11.655Z,10.36
2019-01-27T03:57:11.540Z,10.29
2019-01-27T03:58:11.465Z,10.38
2019-01-27T03:59:11.396Z,10.40
2019-01-27T04:00:11.347Z,10.41
2019-01-27T04:01:11.257Z,10.51
2019-01-27T04:02:11.186Z,10.40
2019-01-27T04:03:11.116Z,10.40
2019-01-27T04:04:11.040Z,10.30
2019-01-27T04:05:10.958Z,10.20
2019-01-27T04:06:10.883Z,10.29
2019-01-27T04:07:10.811Z,10.26
2019-01-27T04:08:10.736Z,10.27
2019-01-27T04:09:10.729Z,10.27
2019-01-27T04:10:10.597Z,10.25
2019-01-27T04:11:10.514Z,10.22
2019-01-27T04:12:10.441Z,10.17
2019-01-27T04:13:10.382Z,10.12
2019-01-27T04:14:10.309Z,10.11
2019-01-27T04:15:10.231Z,10.05
2019-01-27T04:16:10.163Z,9.97
2019-01-27T04:17:10.074Z,9.96
2019-01-27T04:18:09.999Z,9.99
2019-01-27T04:19:09.929Z,9.94
2019-01-27T04:20:09.858Z,9.99
2019-01-27T04:21:09.840Z,9.96
2019-01-27T04:22:09.743Z,9.91
2019-01-27T04:23:09.644Z,9.99
2019-01-27T04:24:09.569Z,9.86
2019-01-27T04:25:09.483Z,9.86
2019-01-27T04:26:09.411Z,9.84
2019-01-27T04:27:09.346Z,9.69
2019-01-27T04:28:09.277Z,9.66
2019-01-27T04:29:09.191Z,9.60
2019-01-27T04:30:09.122Z,9.71
2019-01-27T04:31:09.042Z,9.76
2019-01-27T04:32:08.971Z,9.76
2019-01-27T04:33:08.908Z,9.78
2019-01-27T04:34:08.838Z,9.84
2019-01-27T04:35:08.762Z,9.86
2019-01-27T04:36:08.689Z,9.97
2019-01-27T04:37:08.602Z,9.91
2019-01-27T04:38:08.523Z,10.05
2019-01-27T04:39:08.454Z,9.97
2019-01-27T04:40:08.382Z,10.01
2019-01-27T04:41:08.324Z,10.01
2019-01-27T04:42:08.248Z,10.11
2019-01-27T04:43:08.178Z,10.09
2019-01-27T04:44:08.083Z,10.14
2019-01-27T04:45:08.020Z,10.26
2019-01-27T04:46:07.950Z,10.25
2019-01-27T04:47:07.875Z,10.32
2019-01-27T04:48:07.831Z,10.34
2019-01-27T04:49:07.717Z,10.29
2019-01-27T04:50:07.645Z,10.38
2019-01-27T04:51:07.584Z,10.34
2019-01-27T04:52:07.507Z,10.32
2019-01-27T04:53:07.424Z,10.29
2019-01-27T04:54:07.349Z,10.29
2019-01-27T04:55:07.280Z,10.27
2019-01-27T04:56:07.205Z,10.29
2019-01-27T04:57:07.141Z,10.15
2019-01-27T04:58:07.065Z,10.20
2019-01-27T04:59:06.982Z,10.23
2019-01-27T05:00:06.909Z,10.32
2019-01-27T05:01:06.845Z,10.33
2019-01-27T05:02:06.771Z,10.26
2019-01-27T05:03:06.705Z,10.33
2019-01-27T05:04:06.628Z,10.36
2019-01-27T05:05:06.541Z,10.36
2019-01-27T05:06:06.479Z,10.38
2019-01-27T05:07:06.413Z,10.40
2019-01-27T05:08:06.321Z,10.32
2019-01-27T05:09:06.262Z,10.42
2019-01-27T05:10:06.181Z,10.42
2019-01-27T05:11:06.116Z,10.40
2019-01-27T05:12:06.041Z,10.38
2019-01-27T05:13:05.951Z,10.40
2019-01-27T05:14:05.881Z,10.40
2019-01-27T05:15:05.815Z,10.22
2019-01-27T05:16:05.750Z,10.15
2019-01-27T05:17:05.659Z,9.99
2019-01-27T05:18:05.581Z,10.01
2019-01-27T05:19:05.509Z,9.94
2019-01-27T05:20:05.435Z,10.01
2019-01-27T05:21:05.373Z,9.99
2019-01-27T05:22:05.304Z,9.99
2019-01-27T05:23:05.223Z,10.07
2019-01-27T05:24:05.149Z,10.09
2019-01-27T05:25:05.080Z,10.02
2019-01-27T05:26:05.010Z,10.12
2019-01-27T05:27:04.934Z,10.14
2019-01-27T05:28:04.868Z,10.14
2019-01-27T05:29:04.777Z,10.20
2019-01-27T05:30:04.703Z,10.17
2019-01-27T05:31:04.642Z,10.15
2019-01-27T05:32:04.570Z,10.05
2019-01-27T05:33:04.477Z,9.99
2019-01-27T05:34:04.408Z,9.94
2019-01-27T05:35:04.336Z,10.15
2019-01-27T05:36:04.263Z,10.09
2019-01-27T05:37:04.202Z,10.02
2019-01-27T05:38:04.124Z,9.94
2019-01-27T05:39:04.062Z,9.79
2019-01-27T05:40:03.980Z,9.86
2019-01-27T05:41:03.895Z,9.83
2019-01-27T05:42:03.818Z,9.79
2019-01-27T05:43:03.753Z,9.84
2019-01-27T05:44:03.675Z,9.86
2019-01-27T05:45:03.607Z,9.81
2019-01-27T05:46:03.537Z,9.86
2019-01-27T05:47:03.452Z,9.90
2019-01-27T05:48:03.377Z,9.90
2019-01-27T05:49:03.316Z,9.91
2019-01-27T05:50:03.246Z,9.84
2019-01-27T05:51:03.172Z,9.89
2019-01-27T05:52:03.094Z,9.99
2019-01-27T05:53:03.008Z,10.02
2019-01-27T05:54:02.936Z,9.89
2019-01-27T05:55:02.876Z,9.81
2019-01-27T05:56:02.799Z,9.81
2019-01-27T05:57:02.712Z,9.87
2019-01-27T05:58:02.641Z,9.87
2019-01-27T05:59:02.573Z,9.89
2019-01-27T06:00:02.495Z,10.01
2019-01-27T06:01:02.432Z,9.87
2019-01-27T06:02:02.358Z,9.91
2019-01-27T06:03:02.273Z,9.91
2019-01-27T06:04:02.197Z,9.89
2019-01-27T06:05:02.135Z,9.87
2019-01-27T06:06:02.059Z,9.89
2019-01-27T06:07:01.986Z,9.94
2019-01-27T06:08:01.916Z,10.01
2019-01-27T06:09:01.833Z,9.86
2019-01-27T06:10:01.755Z,9.75
2019-01-27T06:11:01.684Z,9.78
2019-01-27T06:12:01.608Z,9.75
2019-01-27T06:13:01.546Z,9.74
2019-01-27T06:14:01.470Z,9.81
2019-01-27T06:15:01.413Z,9.84
2019-01-27T06:16:01.335Z,9.87
2019-01-27T06:17:01.239Z,9.84
2019-01-27T06:18:01.168Z,9.90
2019-01-27T06:19:01.098Z,9.84
2019-01-27T06:20:01.029Z,9.71
2019-01-27T06:21:00.944Z,9.78
2019-01-27T06:22:00.866Z,9.74
2019-01-27T06:23:00.800Z,9.78
2019-01-27T06:24:00.728Z,9.71
2019-01-27T06:25:00.658Z,9.60
2019-01-27T06:26:00.585Z,9.57
2019-01-27T06:27:00.522Z,9.58
2019-01-27T06:28:00.446Z,9.54
2019-01-27T06:29:00.353Z,9.61
2019-01-27T06:30:00.277Z,9.57
2019-01-27T06:31:00.202Z,9.58
2019-01-27T06:32:00.127Z,9.65
2019-01-27T06:33:00.069Z,9.66
2019-01-27T06:33:59.995Z,9.72
2019-01-27T06:34:59.907Z,9.58
2019-01-27T06:35:59.832Z,9.56
2019-01-27T06:36:59.773Z,9.51
2019-01-27T06:37:59.698Z,9.46
2019-01-27T06:38:59.628Z,9.47
2019-01-27T06:39:59.547Z,9.48
2019-01-27T06:40:59.463Z,9.51
2019-01-27T06:41:59.390Z,9.61
2019-01-27T06:42:59.313Z,9.61
2019-01-27T06:43:59.252Z,9.71
2019-01-27T06:44:59.178Z,9.74
2019-01-27T06:45:59.109Z,9.74
2019-01-27T06:46:59.033Z,9.83
2019-01-27T06:47:58.964Z,9.91
2019-01-27T06:48:58.873Z,9.94
2019-01-27T06:49:58.802Z,10.01
2019-01-27T06:50:58.734Z,10.04
2019-01-27T06:51:58.668Z,10.07
2019-01-27T06:52:58.575Z,10.11
2019-01-27T06:53:58.505Z,10.15
2019-01-27T06:54:58.425Z,10.07
2019-01-27T06:55:58.355Z,10.15
2019-01-27T06:56:58.320Z,10.17
2019-01-27T06:57:58.219Z,10.08
2019-01-27T06:58:58.131Z,10.15
2019-01-27T06:59:58.061Z,10.09
2019-01-27T07:00:57.999Z,10.20
2019-01-27T07:01:57.926Z,10.17
2019-01-27T07:02:57.852Z,10.14
2019-01-27T07:03:57.785Z,10.12
2019-01-27T07:04:57.699Z,10.07
2019-01-27T07:05:57.619Z,10.04
2019-01-27T07:06:57.560Z,10.15
2019-01-27T07:07:57.485Z,10.15
2019-01-27T07:08:57.417Z,10.26
2019-01-27T07:09:57.327Z,10.20
2019-01-27T07:10:57.257Z,10.14
2019-01-27T07:11:57.179Z,10.15
2019-01-27T07:12:57.113Z,10.15
2019-01-27T07:13:57.047Z,10.17
2019-01-27T07:14:56.967Z,10.11
2019-01-27T07:15:56.897Z,10.12
2019-01-27T07:16:56.807Z,9.94
2019-01-27T07:17:56.733Z,9.94
2019-01-27T07:18:56.666Z,9.94
2019-01-27T07:19:56.589Z,9.96
2019-01-27T07:20:56.527Z,10.04
2019-01-27T07:21:56.453Z,10.01
2019-01-27T07:22:56.370Z,10.07
2019-01-27T07:23:56.291Z,9.93
2019-01-27T07:24:56.233Z,10.08
2019-01-27T07:25:56.160Z,9.96
2019-01-27T07:26:56.082Z,10.02
2019-01-27T07:27:56.019Z,9.89
2019-01-27T07:28:55.930Z,9.91
2019-01-27T07:29:55.857Z,9.99
2019-01-27T07:30:55.790Z,9.86
2019-01-27T07:31:55.706Z,9.86
2019-01-27T07:32:55.642Z,9.93
2019-01-27T07:33:55.577Z,10.04
2019-01-27T07:34:55.499Z,10.02
2019-01-27T07:35:55.429Z,10.04
2019-01-27T07:36:55.342Z,10.11
2019-01-27T07:37:55.270Z,10.04
2019-01-27T07:38:55.204Z,10.02
2019-01-27T07:39:55.171Z,9.99
2019-01-27T07:40:55.043Z,9.99
2019-01-27T07:41:54.967Z,10.14
2019-01-27T07:42:54.895Z,10.14
2019-01-27T07:43:54.823Z,10.05
2019-01-27T07:44:54.764Z,10.11
2019-01-27T07:45:54.687Z,10.09
2019-01-27T07:46:54.622Z,10.17
2019-01-27T07:47:54.585Z,10.15
2019-01-27T07:48:54.451Z,10.23
2019-01-27T07:49:54.381Z,10.20
2019-01-27T07:50:54.303Z,10.17
2019-01-27T07:51:54.234Z,10.23
2019-01-27T07:52:54.180Z,10.15
2019-01-27T07:53:54.094Z,10.20
2019-01-27T07:54:54.013Z,10.25
2019-01-27T07:55:53.941Z,10.25
2019-01-27T07:56:53.881Z,10.33
2019-01-27T07:57:53.799Z,10.18
2019-01-27T07:58:53.756Z,10.25
2019-01-27T07:59:53.654Z,10.22
2019-01-27T08:00:53.571Z,10.15
2019-01-27T08:01:53.522Z,10.14
2019-01-27T08:02:53.481Z,10.22
2019-01-27T08:03:53.363Z,10.33
2019-01-27T08:04:53.273Z,10.29
2019-01-27T08:05:53.202Z,10.30
2019-01-27T08:06:53.128Z,10.26
2019-01-27T08:07:53.057Z,10.30
2019-01-27T08:08:52.997Z,10.34
2019-01-27T08:09:52.921Z,10.30
2019-01-27T08:10:52.838Z,10.17
2019-01-27T08:11:52.761Z,10.14
2019-01-27T08:12:52.700Z,10.12
2019-01-27T08:13:52.624Z,10.26
2019-01-27T08:14:52.553Z,10.23
2019-01-27T08:15:52.480Z,10.18
2019-01-27T08:16:52.393Z,10.20
2019-01-27T08:17:52.320Z,10.27
2019-01-27T08:18:52.246Z,10.27
2019-01-27T08:19:52.171Z,10.30
2019-01-27T08:20:52.112Z,10.27
2019-01-27T08:21:52.041Z,10.18
2019-01-27T08:22:51.962Z,10.20
2019-01-27T08:23:51.902Z,10.23
2019-01-27T08:24:51.874Z,10.14
2019-01-27T08:25:51.732Z,10.18
2019-01-27T08:26:51.689Z,10.20
2019-01-27T08:27:51.599Z,10.15
2019-01-27T08:28:51.513Z,10.20
2019-01-27T08:29:51.439Z,10.27
2019-01-27T08:30:51.365Z,10.33
2019-01-27T08:31:51.292Z,10.32
2019-01-27T08:32:51.230Z,10.38
2019-01-27T08:33:51.153Z,10.36
2019-01-27T08:34:51.086Z,10.48
2019-01-27T08:35:51.016Z,10.52
2019-01-27T08:36:50.926Z,10.52
2019-01-27T08:37:50.853Z,10.55
2019-01-27T08:38:50.776Z,10.59
2019-01-27T08:39:50.706Z,10.64
2019-01-27T08:40:50.643Z,10.66
2019-01-27T08:41:50.570Z,10.51
2019-01-27T08:42:50.487Z,10.53
2019-01-27T08:43:50.413Z,10.55
2019-01-27T08:44:50.351Z,10.52
2019-01-27T08:45:50.277Z,10.41
2019-01-27T08:46:50.211Z,10.55
2019-01-27T08:47:50.135Z,10.55
2019-01-27T08:48:50.049Z,10.59
2019-01-27T08:49:49.974Z,10.73
2019-01-27T08:50:49.905Z,10.73
2019-01-27T08:51:49.826Z,10.81
2019-01-27T08:52:49.769Z,10.74
2019-01-27T08:53:49.695Z,10.84
2019-01-27T08:54:49.630Z,10.82
2019-01-27T08:55:49.545Z,10.88
2019-01-27T08:56:49.462Z,10.97
2019-01-27T08:57:49.390Z,10.96
2019-01-27T08:58:49.325Z,11.04
2019-01-27T08:59:49.280Z,11.11
2019-01-27T09:00:49.168Z,11.22
2019-01-27T09:01:49.108Z,11.33
2019-01-27T09:02:49.026Z,11.49
2019-01-27T09:03:48.965Z,11.60
2019-01-27T09:04:48.901Z,11.57
2019-01-27T09:05:48.817Z,11.46
2019-01-27T09:06:48.763Z,11.40
2019-01-27T09:07:48.692Z,11.52
2019-01-27T09:08:48.599Z,11.70
2019-01-27T09:09:48.529Z,11.67
2019-01-27T09:10:48.458Z,11.72
2019-01-27T09:11:48.395Z,11.57
2019-01-27T09:12:48.303Z,11.72
2019-01-27T09:13:48.237Z,11.79
2019-01-27T09:14:48.177Z,11.83
2019-01-27T09:15:48.122Z,11.85
2019-01-27T09:16:48.012Z,11.98
2019-01-27T09:17:47.946Z,12.12
2019-01-27T09:18:47.874Z,12.12
2019-01-27T09:19:47.808Z,12.02
2019-01-27T09:20:47.744Z,12.04
2019-01-27T09:21:47.668Z,11.94
2019-01-27T09:22:47.604Z,11.82
2019-01-27T09:23:47.530Z,11.83
2019-01-27T09:24:47.450Z,12.09
2019-01-27T09:25:47.378Z,12.09
2019-01-27T09:26:47.303Z,12.10
2019-01-27T09:27:47.236Z,12.10
2019-01-27T09:28:47.174Z,12.19
2019-01-27T09:29:47.103Z,12.19
2019-01-27T09:30:47.020Z,12.32
2019-01-27T09:31:46.950Z,12.42
2019-01-27T09:32:46.886Z,12.39
2019-01-27T09:33:46.818Z,12.57
2019-01-27T09:34:46.747Z,12.53
2019-01-27T09:35:46.678Z,12.64
2019-01-27T09:36:46.600Z,12.78
2019-01-27T09:37:46.526Z,12.78
2019-01-27T09:38:46.478Z,12.83
2019-01-27T09:39:46.398Z,12.92
2019-01-27T09:40:46.320Z,13.01
2019-01-27T09:41:46.242Z,13.05
2019-01-27T09:42:46.170Z,13.08
2019-01-27T09:43:46.106Z,13.25
2019-01-27T09:44:46.042Z,13.23
2019-01-27T09:45:57.584Z,13.07
2019-01-27T09:46:45.903Z,13.10
2019-01-27T09:47:45.822Z,13.10
2019-01-27T09:48:45.765Z,13.00
2019-01-27T09:49:45.692Z,12.93
2019-01-27T09:50:45.623Z,13.07
2019-01-27T09:51:45.577Z,12.86
2019-01-27T09:52:45.474Z,12.87
2019-01-27T09:53:45.406Z,12.85
2019-01-27T09:54:45.346Z,12.74
2019-01-27T09:55:45.272Z,12.52
2019-01-27T09:56:45.207Z,12.67
2019-01-27T09:57:45.135Z,12.65
2019-01-27T09:58:45.105Z,12.89
2019-01-27T09:59:44.997Z,12.90
2019-01-27T10:00:44.912Z,12.93
2019-01-27T10:01:44.846Z,13.00
2019-01-27T10:02:44.789Z,13.12
2019-01-27T10:03:44.723Z,13.11
2019-01-27T10:04:44.643Z,13.10
2019-01-27T10:05:44.563Z,13.15
2019-01-27T10:06:44.496Z,13.29
2019-01-27T10:07:44.426Z,13.05
2019-01-27T10:08:44.395Z,13.08
2019-01-27T10:09:44.296Z,13.08
2019-01-27T10:10:44.213Z,12.92
2019-01-27T10:11:44.151Z,13.00
2019-01-27T10:12:44.095Z,12.93
2019-01-27T10:13:44.021Z,13.03
2019-01-27T10:14:43.949Z,12.97
2019-01-27T10:15:43.887Z,13.01
2019-01-27T10:16:43.804Z,13.01
2019-01-27T10:17:43.726Z,12.92
2019-01-27T10:18:43.669Z,12.87
2019-01-27T10:19:43.604Z,12.93
2019-01-27T10:20:43.524Z,13.05
2019-01-27T10:21:43.448Z,13.00
2019-01-27T10:22:43.379Z,12.86
2019-01-27T10:23:43.318Z,12.82
2019-01-27T10:24:43.256Z,12.74
2019-01-27T10:25:43.179Z,12.74
2019-01-27T10:26:43.117Z,12.92
2019-01-27T10:27:43.045Z,13.01
2019-01-27T10:28:42.960Z,12.93
2019-01-27T10:29:42.888Z,12.90
2019-01-27T10:30:42.830Z,12.87
2019-01-27T10:31:42.755Z,12.93
2019-01-27T10:32:42.693Z,12.95
2019-01-27T10:33:42.631Z,13.04
2019-01-27T10:34:42.543Z,13.10
2019-01-27T10:35:43.042Z,13.15
2019-01-27T10:36:42.415Z,13.22
2019-01-27T10:37:42.346Z,13.28
2019-01-27T10:38:42.274Z,13.33
2019-01-27T10:39:42.205Z,13.45
2019-01-27T10:40:42.124Z,13.55
2019-01-27T10:41:42.052Z,13.63
2019-01-27T10:42:42.182Z,13.62
2019-01-27T10:43:41.915Z,13.55
2019-01-27T10:44:41.857Z,13.54
2019-01-27T10:45:41.791Z,13.49
2019-01-27T10:46:41.716Z,13.49
2019-01-27T10:47:41.648Z,13.46
2019-01-27T10:48:41.568Z,13.41
2019-01-27T10:49:41.524Z,13.42
2019-01-27T10:50:41.439Z,13.39
2019-01-27T10:51:41.369Z,13.28
2019-01-27T10:52:41.286Z,13.25
2019-01-27T10:53:41.216Z,13.26
2019-01-27T10:54:41.146Z,13.28
2019-01-27T10:55:41.075Z,13.38
2019-01-27T10:56:41.023Z,13.38
2019-01-27T10:57:42.426Z,13.39
2019-01-27T10:58:40.878Z,13.49
2019-01-27T10:59:40.810Z,13.49
2019-01-27T11:00:40.724Z,13.51
2019-01-27T11:01:40.660Z,13.44
2019-01-27T11:02:40.586Z,13.32
2019-01-27T11:03:40.516Z,13.32
2019-01-27T11:04:40.457Z,13.30
2019-01-27T11:05:41.997Z,13.30
2019-01-27T11:06:40.304Z,13.29
2019-01-27T11:07:40.244Z,13.26
2019-01-27T11:08:40.170Z,13.32
2019-01-27T11:09:40.125Z,13.25
2019-01-27T11:10:40.031Z,13.19
2019-01-27T11:11:39.961Z,13.08
2019-01-27T11:12:39.882Z,13.07
2019-01-27T11:13:39.808Z,13.11
2019-01-27T11:14:39.752Z,13.14
2019-01-27T11:15:39.680Z,13.19
2019-01-27T11:16:39.598Z,13.10
2019-01-27T11:17:39.525Z,13.04
2019-01-27T11:18:39.456Z,12.90
2019-01-27T11:19:39.382Z,12.87
2019-01-27T11:20:40.085Z,12.89
2019-01-27T11:21:39.278Z,12.87
2019-01-27T11:22:39.173Z,12.96
2019-01-27T11:23:39.100Z,12.87
2019-01-27T11:24:39.037Z,12.92
2019-01-27T11:25:38.996Z,12.95
2019-01-27T11:26:38.898Z,13.10
2019-01-27T11:27:38.827Z,13.23
2019-01-27T11:28:38.758Z,13.20
2019-01-27T11:29:38.668Z,13.23
2019-01-27T11:30:38.603Z,13.12
2019-01-27T11:31:39.956Z,13.14
2019-01-27T11:32:38.473Z,13.30
2019-01-27T11:33:38.401Z,13.32
2019-01-27T11:34:38.353Z,13.33
2019-01-27T11:35:38.258Z,13.30
2019-01-27T11:36:38.170Z,13.42
2019-01-27T11:37:38.114Z,13.49
2019-01-27T11:38:38.063Z,13.55
2019-01-27T11:39:37.972Z,13.39
2019-01-27T11:40:37.891Z,13.41
2019-01-27T11:41:37.818Z,13.38
2019-01-27T11:42:37.771Z,13.32
2019-01-27T11:43:37.674Z,13.26
2019-01-27T11:44:37.616Z,13.30
2019-01-27T11:45:37.543Z,13.36
2019-01-27T11:46:37.469Z,13.38
2019-01-27T11:47:37.406Z,13.32
2019-01-27T11:48:37.316Z,13.30
2019-01-27T11:49:37.258Z,13.19
2019-01-27T11:50:37.176Z,13.23
2019-01-27T11:51:37.105Z,13.19
2019-01-27T11:52:37.046Z,13.26
2019-01-27T11:53:36.981Z,13.30
2019-01-27T11:54:36.892Z,13.20
2019-01-27T11:55:36.825Z,13.25
2019-01-27T11:56:36.764Z,13.20
2019-01-27T11:57:36.719Z,13.32
2019-01-27T11:58:36.617Z,13.38
2019-01-27T11:59:36.548Z,13.29
2019-01-27T12:00:36.472Z,13.30
2019-01-27T12:01:36.392Z,13.30
2019-01-27T12:02:36.323Z,13.32
2019-01-27T12:03:36.250Z,13.42
2019-01-27T12:04:36.200Z,13.49
2019-01-27T12:05:36.119Z,13.38
2019-01-27T12:06:36.049Z,13.48
2019-01-27T12:07:35.973Z,13.49
2019-01-27T12:08:35.941Z,13.48
2019-01-27T12:09:35.824Z,13.49
2019-01-27T12:10:35.763Z,13.55
2019-01-27T12:11:35.704Z,13.71
2019-01-27T12:12:35.612Z,13.59
2019-01-27T12:13:35.538Z,13.64
2019-01-27T12:14:35.464Z,13.52
2019-01-27T12:15:35.401Z,13.57
2019-01-27T12:16:35.339Z,13.52
2019-01-27T12:17:35.265Z,13.63
2019-01-27T12:18:35.182Z,13.52
2019-01-27T12:19:35.146Z,13.55
2019-01-27T12:20:35.054Z,13.46
2019-01-27T12:21:34.979Z,13.44
2019-01-27T12:22:34.910Z,13.32
2019-01-27T12:23:34.846Z,13.36
2019-01-27T12:24:34.756Z,13.39
2019-01-27T12:25:34.773Z,13.46
2019-01-27T12:26:34.651Z,13.38
2019-01-27T12:27:34.552Z,13.49
2019-01-27T12:28:34.468Z,13.45
2019-01-27T12:29:34.396Z,13.62
2019-01-27T12:30:34.389Z,13.57
2019-01-27T12:31:34.258Z,13.66
2019-01-27T12:32:34.244Z,13.54
2019-01-27T12:33:34.126Z,13.51
2019-01-27T12:34:34.057Z,13.51
2019-01-27T12:35:33.986Z,13.54
2019-01-27T12:36:33.903Z,13.59
2019-01-27T12:37:33.834Z,13.52
2019-01-27T12:38:33.758Z,13.66
2019-01-27T12:39:33.692Z,13.70
2019-01-27T12:40:33.633Z,13.59
2019-01-27T12:41:33.559Z,13.64
2019-01-27T12:42:33.476Z,13.70
2019-01-27T12:43:33.401Z,13.70
2019-01-27T12:44:33.347Z,13.71
2019-01-27T12:45:33.269Z,13.69
2019-01-27T12:46:33.203Z,13.67
2019-01-27T12:47:33.134Z,13.69
2019-01-27T12:48:33.054Z,13.55
2019-01-27T12:49:32.978Z,13.49
2019-01-27T12:50:32.904Z,13.57
2019-01-27T12:51:32.837Z,13.60
2019-01-27T12:52:32.772Z,13.60
2019-01-27T12:53:32.702Z,13.67
2019-01-27T12:54:32.631Z,13.62
2019-01-27T12:55:32.562Z,13.70